Terminal Aerodrome Forecast
Issued by NWS

Home | Current Version | Previous Version | Graphics & Text | Print | Product List | Glossary On
Versions: 1 2 3 4 5 6 7 8 9 10 11 12
000
FTUS43 KGRB 231700
TAFAUW
TAF
KAUW 231720Z 2318/2418 29011G16KT P6SM FEW040
     FM232300 29006KT P6SM SKC
     FM240200 VRB03KT P6SM SCT250
     FM241400 16007KT P6SM BKN120 BKN200=

USA.gov is the U.S. government's official web portal to all federal, state and local government web resources and services.